createdAt,value
2022-09-07T00:04:49.014Z,17.08
2022-09-07T00:15:12.742Z,17.22
2022-09-07T00:25:39.113Z,17.27
2022-09-07T00:36:00.857Z,17.22
2022-09-07T00:46:26.023Z,17.30
2022-09-07T00:56:50.193Z,17.23
2022-09-07T01:07:11.832Z,17.29
2022-09-07T01:17:41.806Z,17.13
2022-09-07T01:28:13.846Z,17.25
2022-09-07T01:39:02.989Z,17.28
2022-09-07T01:49:35.152Z,17.35
2022-09-07T02:00:10.014Z,17.39
2022-09-07T02:10:31.511Z,17.25
2022-09-07T02:20:58.034Z,17.24
2022-09-07T02:31:20.021Z,17.05
2022-09-07T02:41:44.635Z,17.31
2022-09-07T02:52:09.145Z,17.68
2022-09-07T03:02:52.550Z,17.64
2022-09-07T03:13:26.578Z,17.29
2022-09-07T03:23:51.753Z,16.72
2022-09-07T03:34:13.844Z,16.76
2022-09-07T03:44:35.369Z,16.67
2022-09-07T03:54:56.941Z,16.75
2022-09-07T04:05:18.554Z,16.73
2022-09-07T04:15:40.068Z,16.69
2022-09-07T04:26:01.627Z,16.64
2022-09-07T04:36:24.849Z,16.50
2022-09-07T04:46:46.474Z,16.42
2022-09-07T04:57:09.859Z,16.51
2022-09-07T05:07:31.458Z,16.43
2022-09-07T05:17:53.039Z,16.35
2022-09-07T05:28:19.105Z,16.39
2022-09-07T05:38:41.061Z,16.39
2022-09-07T05:49:03.609Z,16.35
2022-09-07T05:59:25.137Z,16.31
2022-09-07T06:20:28.202Z,16.60
2022-09-07T06:30:49.726Z,16.43
2022-09-07T06:51:58.955Z,16.67
2022-09-07T07:02:20.498Z,17.08
2022-09-07T07:23:02.941Z,17.33
2022-09-07T07:33:25.268Z,17.53
2022-09-07T07:43:48.349Z,17.72
2022-09-07T07:54:09.864Z,18.01
2022-09-07T08:04:32.734Z,18.42
2022-09-07T08:14:54.223Z,18.68
2022-09-07T08:25:15.821Z,18.99
2022-09-07T08:35:37.285Z,18.97
2022-09-07T08:46:30.936Z,19.50
2022-09-07T09:07:53.063Z,20.04
2022-09-07T09:18:42.429Z,20.46
2022-09-07T09:29:20.238Z,20.78
2022-09-07T09:39:44.548Z,20.89
2022-09-07T09:52:29.237Z,20.84
2022-09-07T10:01:21.794Z,20.75
2022-09-07T10:12:09.580Z,20.97
2022-09-07T10:22:38.849Z,20.86
2022-09-07T10:33:09.111Z,21.60
2022-09-07T10:43:42.224Z,21.65
2022-09-07T10:54:30.876Z,21.77
2022-09-07T11:05:17.748Z,21.69
2022-09-07T11:15:49.487Z,21.66
2022-09-07T11:26:23.319Z,21.73
2022-09-07T11:36:58.466Z,22.13
2022-09-07T11:47:41.783Z,22.44
2022-09-07T11:58:09.268Z,22.58
2022-09-07T12:08:40.724Z,22.43
2022-09-07T12:19:24.591Z,22.60
2022-09-07T12:30:10.357Z,22.82
2022-09-07T12:40:33.420Z,22.91
2022-09-07T13:02:10.385Z,23.28
2022-09-07T13:13:00.370Z,23.02
2022-09-07T13:23:25.733Z,22.95
2022-09-07T13:33:50.362Z,23.13
2022-09-07T13:44:25.218Z,23.23
2022-09-07T13:54:59.350Z,23.56
2022-09-07T14:05:22.443Z,23.59
2022-09-07T14:15:47.511Z,23.34
2022-09-07T14:26:23.218Z,23.47
2022-09-07T14:36:46.993Z,23.43
2022-09-07T14:47:18.954Z,23.25
2022-09-07T14:57:40.630Z,23.39
2022-09-07T15:08:03.310Z,23.71
2022-09-07T15:18:56.543Z,23.65
2022-09-07T15:29:22.311Z,23.70
2022-09-07T15:39:44.614Z,23.62
2022-09-07T15:50:07.282Z,23.78
2022-09-07T16:00:30.600Z,23.42
2022-09-07T16:10:54.154Z,23.38
2022-09-07T16:21:16.718Z,23.18
2022-09-07T16:31:38.508Z,23.49
2022-09-07T16:42:00.442Z,23.28
2022-09-07T16:52:23.271Z,23.04
2022-09-07T17:02:44.713Z,23.50
2022-09-07T17:13:09.269Z,23.17
2022-09-07T17:23:31.982Z,23.01
2022-09-07T17:33:59.077Z,22.54
2022-09-07T17:44:22.536Z,22.11
2022-09-07T17:54:43.975Z,21.89
2022-09-07T18:05:07.094Z,21.71
2022-09-07T18:15:28.822Z,21.50
2022-09-07T18:25:57.702Z,21.32
2022-09-07T18:36:19.624Z,21.10
2022-09-07T18:46:41.171Z,21.12
2022-09-07T18:57:02.671Z,20.92
2022-09-07T19:07:29.002Z,20.78
2022-09-07T19:17:51.580Z,20.59
2022-09-07T19:28:13.054Z,20.46
2022-09-07T19:38:35.129Z,20.33
2022-09-07T19:48:56.674Z,20.16
2022-09-07T19:59:19.575Z,20.04
2022-09-07T20:09:41.095Z,20.03
2022-09-07T20:20:02.871Z,19.90
2022-09-07T20:30:24.370Z,19.91
2022-09-07T20:40:57.955Z,20.03
2022-09-07T20:51:21.249Z,19.88
2022-09-07T21:01:42.852Z,19.76
2022-09-07T21:12:04.486Z,19.70
2022-09-07T21:22:25.988Z,19.59
2022-09-07T21:32:51.764Z,19.45
2022-09-07T21:43:13.296Z,19.35
2022-09-07T21:53:35.377Z,19.31
2022-09-07T22:03:59.460Z,19.23
2022-09-07T22:14:21.078Z,19.11
2022-09-07T22:24:42.539Z,19.03
2022-09-07T22:35:04.247Z,18.87
2022-09-07T22:45:25.694Z,18.75
2022-09-07T22:55:47.143Z,18.60
2022-09-07T23:06:17.239Z,18.60
2022-09-07T23:16:39.106Z,18.47
2022-09-07T23:27:00.733Z,18.38
2022-09-07T23:37:22.320Z,18.23
2022-09-07T23:47:44.039Z,18.10
2022-09-07T23:58:06.367Z,18.12
